Logo AVAMET
Benvolgut visitant, si us plau, ingressa Recuperar contrasenya
AVAMET paisatges

Relleu Casc urbà

Dades diàries. Acumulats / Últims 30 dies disponibles

Data Temperatura (°C) Humitat rel. (%) Pressió rel. (hPa) Vent (km/h) Precipitació
Mínima Mitjana Màxima Amplitud
tèrmica
Mínima Mitjana Màxima Mínima Mitjana Màxima Predom. Mitjana Ràfega
màxima
Total
(mm)
Índex-n
Mínima Mitjana Màxima Mínima Mitjana Màxima n
0 a 1
P0 max
mm 5'
Dades mensuals acumulades fins l'últim dia disponible
02/2020 5,7 9,6 14,2 11,4 8,8 18,7 26,4 20,7 1 56 95 1.020 1.026 1.032   0,6 29,0 1,2
Dades anuals acumulades fins l'últim dia disponible
2020 3,7 8,0 14,2 9,9 8,7 16,5 26,4 22,7 1 58 95 0 1.023 1.034   1,1 48,3 54,8
Últims 30 dies disponibles
22-02-2020 6,4     4,4     8,8 2,4 1 43 81 1.030 1.031 1.032 S 0,0 4,8 0,0
21-02-2020 7,1     9,0     16,8 9,7 1 60 91 1.027 1.029 1.031 SSO 0,2 6,4 0,0
20-02-2020 6,0     9,5     16,2 10,2 1 65 93 1.024 1.026 1.029 S 0,2 8,0 0,2
19-02-2020 7,4     8,9     14,2 6,8 1 72 93 1.029 1.030 1.032 SSO 0,0 3,2 0,2
18-02-2020 10,1     8,4     15,9 5,8 1 64 94 1.027 1.029 1.031 SE 0,3 12,9 0,6
17-02-2020 11,3     15,0     23,0 11,7 1 45 85 1.023 1.025 1.026 S 1,5 17,7 0,0
16-02-2020 8,8     11,4     18,8 10,0 1 70 95 1.025 1.026 1.028 S 0,1 6,4 0,0
15-02-2020 9,1     11,0     18,2 9,1 1 65 95 1.024 1.026 1.027 S 0,0 6,4 0,0
14-02-2020 10,5     12,6     19,8 9,3 1 54 82 1.023 1.024 1.025 SSO 0,7 12,9 0,0
13-02-2020 9,3     12,3     20,4 11,1 1 57 92 1.021 1.022 1.023 SSO 1,1 19,3 0,0
12-02-2020 11,8     12,8     20,8 9,0 1 59 90 1.021 1.022 1.023 SSO 0,4 14,5 0,0
11-02-2020 13,8     15,1     23,7 9,9 1 43 72 1.020 1.023 1.026 SSO 0,6 20,9 0,0
10-02-2020 9,6     13,6     22,0 12,4 1 50 78 1.026 1.029 1.032 S 1,2 22,5 0,0
09-02-2020 9,8     10,8     18,1 8,3 1 58 89 1.026 1.029 1.032 S 0,6 16,1 0,0
08-02-2020 6,5     9,9     17,1 10,6 1 61 90 1.023 1.025 1.027 SSE 0,2 8,0 0,0
07-02-2020 6,5     8,5     13,8 7,3 1 64 86 1.023 1.024 1.026 S 0,0 4,8 0,0
06-02-2020 5,7     7,7     14,7 9,0 1 60 88 1.025 1.027 1.029 SSO 0,1 6,4 0,0
05-02-2020 7,4     8,4     15,3 7,9 1 64 91 1.026 1.027 1.029 S 0,1 9,7 0,2
04-02-2020 14,2     17,9     26,4 12,2 1 29 57 1.021 1.024 1.027 SO 1,6 20,9 0,0
03-02-2020 14,0     15,7     23,7 9,7 1 50 70 1.027 1.028 1.029 SO 0,2 6,4 0,0
02-02-2020 13,0     14,4     22,3 9,3 1 53 76 1.026 1.027 1.029 SSO 1,3 17,7 0,0
01-02-2020 12,2     14,0     21,1 8,9 1 52 72 1.021 1.023 1.026 SO 3,8 29,0 0,0
31-01-2020 12,7     12,7     19,1 6,4 1 49 67 1.020 1.022 1.023 SO 5,2 37,0 0,0
30-01-2020 13,4     13,6     21,3 7,9 1 40 63 1.020 1.021 1.023 SO 4,1 37,0 0,0
29-01-2020 12,6     12,6     19,1 6,5 1 50 69 1.021 1.022 1.023 SO 4,4 37,0 0,0
28-01-2020 11,5     11,5     16,2 4,7 1 53 68 1.021 1.022 1.023 SSO 4,1 37,0 0,0
27-01-2020 7,4     9,8     15,3 7,9 1 46 67 1.021 1.023 1.025 SSO 1,8 24,1 0,0
26-01-2020 7,1     9,3     14,7 7,6 1 54 84 1.018 1.021 1.025 SO 4,3 25,7 0,0
25-01-2020 6,8     8,5     15,2 8,4 1 63 90 1.017 1.019 1.021 SSO 0,0 4,8 0,0
24-01-2020 6,2     8,3     14,7 8,5 1 63 89 1.020 1.021 1.023 SSO 0,1 4,8 0,0
Últims 13 mesos disponibles
01/2020 3,7 7,0 13,4 8,9 8,7 14,9 21,3 17,6 40 59 82 908 1.021 1.032 SSO 1,5 48,3
12/2019 6,2 9,7 14,0 12,7 11,7 16,9 23,8 17,6 35 66 82 999 1.018 1.032 O 2,4 49,9 58,6
11/2019 6,1 10,6 17,8 13,5 12,7 17,4 24,7 18,6 47 58 86 999 1.010 1.018 O 4,5 49,9 17,6
10/2019 9,2 15,0 18,6 19,0 13,9 24,3 31,4 22,2 45 64 82 1.008 1.016 1.021 OSO 1,5 53,1 45,0
09/2019 13,2 18,5 21,2 22,6 21,6 28,1 33,2 20,0 45 70 84 1.009 1.016 1.021 SO 1,1 46,7 97,8
08/2019 17,9 21,5 27,3 26,5 27,8 32,7 38,4 20,5 30 57 74 1.009 1.014 1.018 OSO 0,8 30,6 12,2
07/2019 18,9 21,4 25,2 27,3 28,1 33,7 38,1 19,2 28 48 75 1.004 1.012 1.018 SO 0,7 29,0 3,6
06/2019 13,2 17,6 25,3 23,6 24,6 29,8 38,3 25,1 27 48 73 1.007 1.013 1.021 SO 1,1 32,2 1,4
05/2019 9,7 13,3 18,9 18,4 18,6 24,1 30,3 20,6 37 58 75 1.004 1.014 1.024 OSO 1,1 41,8 6,4
04/2019 7,1 10,2 13,9 14,3 13,7 19,2 27,6 20,5 35 65 88 1.000 1.012 1.024 OSO 2,0 45,1 140,8
03/2019 5,8 9,4 13,7 14,0 11,9 19,6 25,6 19,8 25 50 81 1.010 1.022 1.030 OSO 1,7 37,0 25,4
02/2019 2,9 7,0 11,7 11,6 9,9 17,4 24,3 21,4 26 53 74 996 1.024 1.033 OSO 1,7 49,9 1,2
01/2019 2,6 6,8 11,0 10,3 9,9 14,7 19,1 16,5 39 57 80 1.004 1.019 1.031 O 2,9 49,9 1,2
Tots els anys disponibles
2019 2,6 13,5 27,3 17,9 9,9 23,2 38,4 35,8 25 58 88 996 1.016 1.033 OSO 1,8 53,1 411,2
2018 2,3 13,4 25,7 17,6 5,9 23,0 36,8 34,5 33 61 87 994 1.015 1.034 OSO 1,8 55,0 435,4
2017 -0,1 13,4 26,7 18,0 6,1 23,5 39,4 39,5 23 59 88 998 1.018 1.036 OSO 1,6 58,0 380,6
2016 2,0 13,4 24,6 18,2 10,4 23,1 39,3 37,3 22 61 91 995 1.017 1.037 O 0,1 53,0 353,6
Temperatura (°C)
Humitat relativa (%)
Velocitat del vent i ràfega màxima (km/h)
Direcció del vent (°)
Pressió (hPa)
Precipitació (mm)
Nota sobre les dades: s'avisa a l'usuari de la provisionalitat i no oficialitat d'aquestes dades
Logo AVAMET blanc
Web allotjada a Sollutia
Llicència de Creative CommonsLa web d'AVAMET i els seus continguts estan subjectes a una llicència de
Reconeixement - No Comercial - Compartir igual
Últimes estacions:  Chera (Ajuntament soci), Benifaió (Inforatge), Altea - Com. Regants (Soci) - - -